Have a Safe July 4th! 

Flight Track Log - Related Links

Times and Time Zones

All times are in EDT time to prevent confusion due to time zone crossing. See the DAL1761 flight status page for this flight to view local times or setup timezone preferences in your user account.

Time Position Orientation Groundspeed Altitude Reporting Facility
EDT Latitude Longitude Course Direction KTS MPH feet Rate Location/Type
Sun 01:33:56 PM 33.6333 -84.4833 239° Southwest 189 217 2,400  Level Atlanta TRACON
Sun 01:34:56 PM 33.6000 -84.5500 203° Southwest 269 310 4,200 2,350 Climbing Atlanta TRACON
Sun 01:35:56 PM 33.5333 -84.5833 159° South 291 335 7,100 2,672 Climbing Atlanta TRACON
Sun 01:37:04 PM 33.4572 -84.5492 90° East 316 364 9,900 1,969 Climbing Atlanta Center
Sun 01:38:04 PM 33.4575 -84.4472 91° East 293 337 11,300 1,450 Climbing Atlanta Center
Sun 01:39:04 PM 33.4558 -84.3203 46° Northeast 350 403 12,800 1,900 Climbing Atlanta Center
Sun 01:40:04 PM 33.5311 -84.2283 29° Northeast 376 433 15,100 2,250 Climbing Atlanta Center
Sun 01:41:04 PM 33.6336 -84.1611 32° Northeast 383 441 17,300 2,000 Climbing Atlanta Center
Sun 01:42:04 PM 33.7336 -84.0861 56° Northeast 413 475 19,100 2,000 Climbing Atlanta Center
Sun 01:43:04 PM 33.8025 -83.9614 59° Northeast 424 488 21,300 1,850 Climbing Atlanta Center
Sun 01:44:04 PM 33.8672 -83.8336 58° Northeast 441 507 22,800 1,450 Climbing Atlanta Center
Sun 01:45:04 PM 33.9253 -83.7208 53° Northeast 449 517 24,200 1,100 Climbing Atlanta Center
Sun 01:46:04 PM 34.0083 -83.5878 52° Northeast 449 517 25,000 400 Climbing Atlanta Center
Sun 01:47:04 PM 34.0933 -83.4544 53° Northeast 449 517 25,000  Level Atlanta Center
Sun 01:48:04 PM 34.1700 -83.3333 53° Northeast 449 517 25,000 300 Level Atlanta Center
Sun 01:49:04 PM 34.2444 -83.2144 54° Northeast 449 517 25,600 1,100 Climbing Atlanta Center
Sun 01:50:04 PM 34.3186 -83.0906 52° Northeast 449 517 27,200 1,650 Climbing Atlanta Center
Sun 01:51:04 PM 34.3928 -82.9739 52° Northeast 444 511 28,900 1,600 Climbing Atlanta Center
Sun 01:52:04 PM 34.4669 -82.8572 55° Northeast 433 498 30,400 1,250 Climbing Atlanta Center
Sun 01:53:04 PM 34.5367 -82.7375 54° Northeast 433 498 31,400 1,000 Climbing Atlanta Center
Sun 01:54:04 PM 34.6064 -82.6206 53° Northeast 433 498 32,400 800 Climbing Atlanta Center
Sun 01:55:04 PM 34.6800 -82.5031 54° Northeast 433 498 33,000 200 Climbing Atlanta Center
Sun 01:57:04 PM 34.8228 -82.2675 53° Northeast 433 498 33,000  Level Atlanta Center
Sun 01:58:04 PM 34.8961 -82.1469 52° Northeast 433 498 33,000  Level Atlanta Center
Sun 01:59:04 PM 34.9694 -82.0314 53° Northeast 433 498 33,000  Level Atlanta Center
Sun 02:00:04 PM 35.0203 -81.9489 57° Northeast 433 498 33,000  Level Atlanta Center
Sun 02:03:04 PM 35.2339 -81.5469 58° Northeast 444 511 33,000  Level Atlanta Center
Sun 02:04:04 PM 35.2981 -81.4228 58° Northeast 444 511 33,000  Level Atlanta Center
Sun 02:05:04 PM 35.3622 -81.2961 58° Northeast 444 511 33,000  Level Atlanta Center
Sun 02:06:04 PM 35.4261 -81.1689 56° Northeast 438 504 33,000  Level Atlanta Center
Sun 02:07:04 PM 35.4939 -81.0442 57° Northeast 438 504 33,000  Level Atlanta Center
Sun 02:08:04 PM 35.5597 -80.9192 57° Northeast 438 504 33,000  Level Atlanta Center
Sun 02:09:04 PM 35.6253 -80.7942 57° Northeast 438 504 33,000  Level Atlanta Center
Sun 02:10:04 PM 35.6908 -80.6686 57° Northeast 438 504 33,000  Level Atlanta Center
Sun 02:11:04 PM 35.7561 -80.5433 58° Northeast 438 504 33,000  Level Atlanta Center
Sun 02:12:04 PM 35.8192 -80.4200 58° Northeast 438 504 33,000  Level Atlanta Center
Sun 02:13:04 PM 35.8842 -80.2892 58° Northeast 433 498 33,000  Level Atlanta Center
Sun 02:14:04 PM 35.9531 -80.1525 56° Northeast 433 498 33,000  Level Atlanta Center
Sun 02:15:36 PM 36.0553 -79.9622 55° Northeast 447 514 33,000  Level Washington Center
Sun 02:16:36 PM 36.1178 -79.8528 55° Northeast 447 514 33,000  Level Washington Center
Sun 02:17:36 PM 36.1956 -79.7128 55° Northeast 442 509 33,000  Level Washington Center
Sun 02:18:37 PM 36.2581 -79.6000 55° Northeast 447 514 33,000  Level Washington Center
Sun 02:19:35 PM 36.3356 -79.4622 55° Northeast 447 514 33,000  Level Washington Center
Sun 02:20:36 PM 36.4064 -79.3342 56° Northeast 447 514 33,000  Level Washington Center
Sun 02:21:35 PM 36.4683 -79.2208 53° Northeast 447 514 33,000  Level Washington Center
Sun 02:22:35 PM 36.5517 -79.0825 55° Northeast 447 514 33,000  Level Washington Center
Sun 02:23:35 PM 36.6219 -78.9589 58° Northeast 441 507 33,000  Level Washington Center
Sun 02:24:37 PM 36.6903 -78.8244 56° Northeast 441 507 33,000  Level Washington Center
Sun 02:25:37 PM 36.7583 -78.6978 55° Northeast 441 507 33,000  Level Washington Center
Sun 02:26:35 PM 36.8283 -78.5733 46° Northeast 441 507 33,000  Level Washington Center
Sun 02:27:35 PM 36.9017 -78.4775 40° Northeast 433 498 33,000  Level Washington Center
Sun 02:28:35 PM 36.9978 -78.3769 40° Northeast 428 493 33,000  Level Washington Center
Sun 02:29:36 PM 37.0897 -78.2814 39° Northeast 428 493 33,000  Level Washington Center
Sun 02:30:37 PM 37.1836 -78.1858 40° Northeast 433 498 33,000 -353 Level Washington Center
Sun 02:31:35 PM 37.2775 -78.0872 38° Northeast 433 498 32,300 -1,160 Descending Washington Center
Sun 02:32:36 PM 37.3714 -77.9933 40° Northeast 433 498 30,700 -1,488 Descending Washington Center
Sun 02:33:36 PM 37.4672 -77.8919 38° Northeast 440 506 29,300 -864 Descending Washington Center
Sun 02:34:34 PM 37.5669 -77.7925 36° Northeast 440 506 29,000 -151 Descending Washington Center
Sun 02:35:35 PM 37.6689 -77.6986 35° Northeast 445 512 29,000  Level Washington Center
Sun 02:36:36 PM 37.7683 -77.6094 36° Northeast 445 512 29,000  Level Washington Center
Sun 02:37:37 PM 37.8700 -77.5172 36° Northeast 445 512 29,000  Level Washington Center
Sun 02:38:37 PM 37.9736 -77.4225 35° Northeast 445 512 29,000 -300 Level Washington Center
Sun 02:39:37 PM 38.0814 -77.3250 37° Northeast 445 512 28,400 -661 Descending Washington Center
Sun 02:40:35 PM 38.1850 -77.2269 35° Northeast 445 512 27,700 -706 Descending Washington Center
Sun 02:41:36 PM 38.2778 -77.1444 35° Northeast 450 518 27,000 -738 Descending Washington Center
Sun 02:42:37 PM 38.3917 -77.0433 37° Northeast 458 527 26,200 -694 Descending Washington Center
Sun 02:43:37 PM 38.4803 -76.9575 36° Northeast 458 527 25,600 -667 Descending Washington Center
Sun 02:44:34 PM 38.5750 -76.8689 35° Northeast 447 514 24,900 -706 Descending Washington Center
Sun 02:45:36 PM 38.6739 -76.7803 62° Northeast 435 501 24,200 2,016 Descending Washington Center
Sun 02:46:36 PM 38.7294 -76.6481 76° East 407 468 29,000 -1,686 Climbing Washington Center
Sun 02:47:37 PM 38.7597 -76.4969 75° East 412 474 20,800 -5,042 Descending Washington Center
Sun 02:48:35 PM 38.7900 -76.3533 75° East 412 474 19,000 -1,815 Descending Washington Center
Sun 02:49:36 PM 38.8200 -76.2044 76° East 417 480 17,200 -1,785 Descending Washington Center
Sun 02:50:36 PM 38.8478 -76.0608 75° East 417 480 15,400 -1,140 Descending Washington Center
Sun 02:51:37 PM 38.8775 -75.9222 62° Northeast 406 467 14,900 -356 Descending Washington Center
Sun 02:52:34 PM 38.9256 -75.8078 36° Northeast 391 450 14,700 -555 Descending Washington Center
Sun 02:53:36 PM 39.0111 -75.7278 25° Northeast 359 413 13,800 -885 Descending Washington Center
Sun 02:54:36 PM 39.1008 -75.6744 North 354 407 12,900 -874 Descending Washington Center
Sun 02:55:19 PM 39.1817 -75.6633 North 345 397 12,300 -816 Descending FAA TRACON SMA TRACON (SMA)
Sun 02:56:19 PM 39.2742 -75.6517 North 334 384 11,500 -780 Descending FAA TRACON SMA TRACON (SMA)
Sun 02:56:59 PM 39.3303 -75.6444 North 328 377 11,000 -975 Descending FAA TRACON SMA TRACON (SMA)
Sun 02:57:39 PM 39.3875 -75.6383 10° North 276 318 10,200 -1,050 Descending FAA TRACON SMA TRACON (SMA)
Sun 02:58:19 PM 39.4369 -75.6275 54° Northeast 265 305 9,600 -1,200 Descending FAA TRACON SMA TRACON (SMA)
Sun 02:58:59 PM 39.4653 -75.5778 53° Northeast 295 339 8,600 -1,425 Descending FAA TRACON SMA TRACON (SMA)
Sun 02:59:39 PM 39.4969 -75.5233 43° Northeast 282 325 7,700 -975 Descending FAA TRACON SMA TRACON (SMA)
Sun 03:00:19 PM 39.5358 -75.4767 34° Northeast 271 312 7,300 -780 Descending FAA TRACON SMA TRACON (SMA)
Sun 03:01:19 PM 39.5956 -75.4253 North 256 295 6,400 -720 Descending FAA TRACON SMA TRACON (SMA)
Sun 03:01:59 PM 39.6397 -75.4164 327° Northwest 272 313 6,100 -300 Descending FAA TRACON SMA TRACON (SMA)
Sun 03:02:39 PM 39.6786 -75.4489 272° West 245 282 6,000  Descending FAA TRACON SMA TRACON (SMA)
Sun 03:03:20 PM 39.6803 -75.5028 255° West 214 246 6,100 75 Climbing FAA TRACON SMA TRACON (SMA)
Sun 03:03:59 PM 39.6714 -75.5469 255° West 206 237 6,100  Level FAA TRACON SMA TRACON (SMA)
Sun 03:04:39 PM 39.6611 -75.5958 255° West 203 234 6,100  Level FAA TRACON SMA TRACON (SMA)
Sun 03:05:19 PM 39.6511 -75.6447 255° West 204 235 6,100  Level FAA TRACON SMA TRACON (SMA)
Sun 03:05:59 PM 39.6422 -75.6883 260° West 203 234 6,100 -75 Level FAA TRACON SMA TRACON (SMA)
Sun 03:06:39 PM 39.6356 -75.7378 260° West 203 234 6,000 -150 Descending FAA TRACON SMA TRACON (SMA)

Login

Don't have an account? Register now (free) for customized features, flight alerts, and more!